Time;durP1;ratioP1;P1;durP2;ratioP2;P2;SDS_P1;SDS_P2;PMS_P1;PMS_P2;Temp;Humidity;BMP_temperature;BMP_pressure;BME280_temperature;BME280_humidity;BME280_pressure;Samples;Min_cycle;Max_cycle;Signal;HPM_P1;HPM_P2
2022/11/29 00:00:45;;;;;;;86.90;25.20;;;8.60;99.90;;;;;;5020411;28;20109;-33
2022/11/29 00:03:12;;;;;;;84.93;24.80;;;8.60;99.90;;;;;;5007051;28;20109;-31
2022/11/29 00:05:37;;;;;;;84.57;25.80;;;8.60;99.90;;;;;;5017973;28;20049;-32
2022/11/29 00:08:03;;;;;;;85.25;23.88;;;8.60;99.90;;;;;;5011901;28;20541;-30
2022/11/29 00:10:29;;;;;;;76.03;23.00;;;8.60;99.90;;;;;;5011728;28;20463;-32
2022/11/29 00:12:55;;;;;;;91.35;25.55;;;8.60;99.90;;;;;;5013168;28;20038;-32
2022/11/29 00:15:21;;;;;;;83.07;22.92;;;8.60;99.90;;;;;;5011853;28;20038;-32
2022/11/29 00:17:46;;;;;;;101.90;26.55;;;8.60;99.90;;;;;;5024668;28;20488;-32
2022/11/29 00:20:12;;;;;;;81.25;22.95;;;8.60;99.90;;;;;;5012529;28;20042;-32
2022/11/29 00:22:38;;;;;;;76.05;22.98;;;8.60;99.90;;;;;;5011943;28;20407;-32
2022/11/29 00:25:05;;;;;;;86.13;24.38;;;8.60;99.90;;;;;;5011246;28;20045;-31
2022/11/29 00:27:31;;;;;;;85.47;23.33;;;8.60;99.90;;;;;;5010894;28;20048;-31
2022/11/29 00:29:57;;;;;;;79.30;24.00;;;8.60;99.90;;;;;;5015310;28;20034;-31
2022/11/29 00:32:23;;;;;;;92.82;23.38;;;8.60;99.90;;;;;;5020777;28;20044;-31
2022/11/29 00:34:49;;;;;;;96.70;23.40;;;8.60;99.90;;;;;;5026038;28;20079;-30
2022/11/29 00:37:14;;;;;;;77.60;22.75;;;8.50;99.90;;;;;;5033670;28;20041;-32
2022/11/29 00:39:40;;;;;;;75.15;21.73;;;8.60;99.90;;;;;;5015141;28;20037;-31
2022/11/29 00:42:06;;;;;;;81.15;23.25;;;8.60;99.90;;;;;;5015466;28;20038;-31
2022/11/29 00:44:32;;;;;;;91.03;23.40;;;8.60;99.90;;;;;;5015348;28;20121;-32
2022/11/29 00:46:58;;;;;;;89.00;24.15;;;8.60;99.90;;;;;;5016438;28;20439;-32
2022/11/29 00:49:23;;;;;;;94.00;23.50;;;8.60;99.90;;;;;;5015405;28;20064;-31
2022/11/29 00:51:49;;;;;;;98.93;24.23;;;8.60;99.90;;;;;;5015368;28;20081;-32
2022/11/29 00:54:16;;;;;;;81.55;22.40;;;8.60;99.90;;;;;;5017907;28;20125;-31
2022/11/29 00:56:42;;;;;;;91.95;24.30;;;8.60;99.90;;;;;;5007751;28;20046;-31
2022/11/29 00:59:07;;;;;;;94.35;25.05;;;8.60;99.90;;;;;;5015362;28;20038;-32
2022/11/29 01:01:33;;;;;;;96.20;25.20;;;8.60;99.90;;;;;;5016297;28;20129;-33
2022/11/29 01:04:00;;;;;;;94.57;24.92;;;8.60;99.90;;;;;;5003416;28;20569;-31
2022/11/29 01:06:26;;;;;;;91.22;24.15;;;8.60;99.90;;;;;;5014697;28;20061;-31
2022/11/29 01:08:52;;;;;;;89.20;24.50;;;8.60;99.90;;;;;;5014781;28;20041;-32
2022/11/29 01:11:25;;;;;;;91.53;24.15;;;8.60;99.90;;;;;;5017198;28;20034;-32
2022/11/29 01:13:54;;;;;;;95.78;23.58;;;8.60;99.90;;;;;;5022869;28;20045;-33
2022/11/29 01:16:20;;;;;;;91.65;23.13;;;8.60;99.90;;;;;;5016331;28;20407;-32
2022/11/29 01:18:46;;;;;;;85.85;22.27;;;8.60;99.90;;;;;;5019049;28;20042;-32
2022/11/29 01:21:18;;;;;;;105.88;25.13;;;8.60;99.90;;;;;;5015000;28;20398;-34
2022/11/29 01:23:45;;;;;;;101.78;24.58;;;8.60;99.90;;;;;;5012940;28;20041;-32
2022/11/29 01:26:15;;;;;;;99.35;24.08;;;8.60;99.90;;;;;;5014928;28;20105;-32
2022/11/29 01:28:41;;;;;;;96.40;23.73;;;8.60;99.90;;;;;;5015945;28;20365;-33
2022/11/29 01:31:09;;;;;;;119.88;27.35;;;8.60;99.90;;;;;;5018078;28;20423;-31
2022/11/29 01:33:35;;;;;;;102.22;25.95;;;8.60;99.90;;;;;;5015731;28;20038;-31
2022/11/29 01:36:02;;;;;;;99.28;26.05;;;8.60;99.90;;;;;;5033662;28;20041;-32
2022/11/29 01:38:29;;;;;;;101.00;24.40;;;8.60;99.90;;;;;;5034030;28;20045;-34
2022/11/29 01:41:01;;;;;;;116.13;24.73;;;8.60;99.90;;;;;;5028798;28;20467;-36
2022/11/29 01:43:28;;;;;;;109.30;27.42;;;8.60;99.90;;;;;;5005827;28;20480;-32
2022/11/29 01:45:54;;;;;;;97.78;23.88;;;8.60;99.90;;;;;;5015707;28;20049;-32
2022/11/29 01:48:27;;;;;;;115.00;24.75;;;8.60;99.90;;;;;;5014216;28;20076;-31
2022/11/29 01:50:56;;;;;;;108.70;26.20;;;8.60;99.90;;;;;;5017899;28;20038;-33
2022/11/29 01:53:22;;;;;;;104.38;25.95;;;8.60;99.90;;;;;;5014102;28;20168;-32
2022/11/29 01:55:52;;;;;;;101.05;23.80;;;8.60;99.90;;;;;;5015443;28;20046;-31
2022/11/29 01:58:19;;;;;;;111.78;25.85;;;8.60;99.90;;;;;;5014159;28;20038;-31
2022/11/29 02:00:46;;;;;;;105.40;25.13;;;8.60;99.90;;;;;;5014108;28;20046;-31
2022/11/29 02:03:14;;;;;;;97.63;23.85;;;8.60;99.90;;;;;;5017506;28;20120;-31
2022/11/29 02:05:44;;;;;;;98.07;25.17;;;8.60;99.90;;;;;;5016347;28;20381;-34
2022/11/29 02:08:14;;;;;;;95.40;24.55;;;8.60;99.90;;;;;;5014886;28;20042;-35
2022/11/29 02:11:07;;;;;;;104.72;25.83;;;8.60;99.90;;;;;;5015253;28;20369;-31
2022/11/29 02:13:43;;;;;;;122.00;26.48;;;8.60;99.90;;;;;;5000786;28;20117;-31
2022/11/29 02:16:15;;;;;;;98.93;24.08;;;8.60;99.90;;;;;;5024526;28;20143;-31
2022/11/29 02:18:53;;;;;;;156.85;31.17;;;8.60;99.90;;;;;;4998494;28;20471;-31
2022/11/29 02:21:49;;;;;;;110.50;25.38;;;8.60;99.90;;;;;;5013828;28;20042;-31
2022/11/29 02:25:01;;;;;;;120.88;27.23;;;8.60;99.90;;;;;;5009270;28;20049;-31
2022/11/29 02:27:32;;;;;;;157.88;29.48;;;8.60;99.90;;;;;;5016836;28;20115;-31
2022/11/29 02:30:12;;;;;;;100.10;26.45;;;8.60;99.90;;;;;;5012344;28;20124;-32
2022/11/29 02:32:52;;;;;;;126.50;28.35;;;8.60;99.90;;;;;;5040881;28;20077;-32
2022/11/29 02:35:37;;;;;;;140.70;28.65;;;8.60;99.90;;;;;;5014752;28;20455;-32
2022/11/29 02:38:29;;;;;;;130.85;29.40;;;8.60;99.90;;;;;;5038474;28;20205;-31
2022/11/29 02:41:13;;;;;;;138.57;29.55;;;8.60;99.90;;;;;;5013873;28;20456;-32
2022/11/29 02:43:56;;;;;;;123.75;28.63;;;8.60;99.90;;;;;;5026733;28;20037;-30
2022/11/29 02:46:45;;;;;;;139.27;30.10;;;8.60;99.90;;;;;;5013364;28;20511;-32
2022/11/29 02:49:48;;;;;;;127.10;27.40;;;8.50;99.90;;;;;;5001693;28;20056;-33
2022/11/29 02:52:17;;;;;;;122.03;26.33;;;8.50;99.90;;;;;;5011429;28;20037;-32
2022/11/29 02:55:08;;;;;;;111.30;26.95;;;8.50;99.90;;;;;;5012505;28;20046;-32
2022/11/29 02:57:56;;;;;;;94.45;21.65;;;8.50;99.90;;;;;;5018790;28;20069;-33
2022/11/29 03:00:22;;;;;;;96.13;22.90;;;8.40;99.90;;;;;;5013976;28;20040;-32
2022/11/29 03:02:51;;;;;;;95.75;22.13;;;8.40;99.90;;;;;;5013201;28;20113;-33
2022/11/29 03:05:38;;;;;;;76.65;21.05;;;8.40;99.90;;;;;;5020691;28;20049;-32
2022/11/29 03:08:27;;;;;;;72.32;20.83;;;8.30;99.90;;;;;;5018622;28;20042;-32
2022/11/29 03:11:11;;;;;;;68.63;19.27;;;8.30;99.90;;;;;;5016364;28;20422;-37
2022/11/29 03:13:46;;;;;;;62.08;19.10;;;8.30;99.90;;;;;;5012970;28;20041;-33
2022/11/29 03:16:15;;;;;;;82.05;19.60;;;8.20;99.90;;;;;;5012356;28;20089;-32
2022/11/29 03:18:58;;;;;;;88.55;20.73;;;8.20;99.90;;;;;;5012847;28;20376;-32
2022/11/29 03:21:39;;;;;;;65.07;18.80;;;8.10;99.90;;;;;;5013303;28;20045;-30
2022/11/29 03:24:14;;;;;;;68.15;18.27;;;8.10;99.90;;;;;;5026563;28;20045;-31
2022/11/29 03:27:05;;;;;;;75.60;19.45;;;8.00;99.90;;;;;;5012554;28;20546;-32
2022/11/29 03:29:57;;;;;;;55.65;17.63;;;8.00;99.90;;;;;;5012099;28;20124;-30
2022/11/29 03:32:51;;;;;;;67.88;18.95;;;8.00;99.90;;;;;;4999514;28;20099;-31
2022/11/29 03:35:40;;;;;;;70.68;18.67;;;8.00;99.90;;;;;;5015590;28;20073;-31
2022/11/29 03:38:20;;;;;;;61.75;19.20;;;8.00;99.90;;;;;;5007289;28;20081;-32
2022/11/29 03:41:18;;;;;;;71.50;19.88;;;7.90;99.90;;;;;;5019366;28;20077;-33
2022/11/29 03:43:47;;;;;;;73.78;20.58;;;7.90;99.90;;;;;;5004362;28;20081;-32
2022/11/29 03:46:55;;;;;;;66.35;19.77;;;7.90;99.90;;;;;;5011823;28;20046;-31
2022/11/29 03:49:46;;;;;;;146.77;26.98;;;7.90;99.90;;;;;;5022875;28;20046;-32
2022/11/29 03:52:15;;;;;;;105.80;24.17;;;7.90;99.90;;;;;;5004886;28;20080;-33
2022/11/29 03:55:00;;;;;;;65.00;21.08;;;7.80;99.90;;;;;;5018448;28;20056;-31
2022/11/29 03:57:39;;;;;;;81.90;21.20;;;7.90;99.90;;;;;;5017204;28;20040;-31
2022/11/29 04:00:08;;;;;;;74.78;22.02;;;7.90;99.90;;;;;;5022660;28;20080;-32
2022/11/29 04:03:12;;;;;;;123.45;27.73;;;7.90;99.90;;;;;;5023719;28;20037;-31
2022/11/29 04:06:13;;;;;;;77.35;22.52;;;7.90;99.90;;;;;;4994021;28;20049;-32
2022/11/29 04:09:03;;;;;;;88.35;23.02;;;7.90;99.90;;;;;;4989707;28;20452;-32
2022/11/29 04:11:53;;;;;;;73.57;22.90;;;7.90;99.90;;;;;;5013627;28;20041;-31
2022/11/29 04:14:38;;;;;;;93.82;24.35;;;7.90;99.90;;;;;;5012758;28;20038;-31
2022/11/29 04:17:57;;;;;;;76.95;23.50;;;7.90;99.90;;;;;;5011870;28;20033;-31
2022/11/29 04:20:41;;;;;;;105.70;24.05;;;7.90;99.90;;;;;;4939374;28;20412;-32
2022/11/29 04:23:22;;;;;;;178.23;33.35;;;7.90;99.90;;;;;;5008791;28;20045;-31
2022/11/29 04:26:17;;;;;;;78.15;23.65;;;7.90;99.90;;;;;;5014872;28;20041;-32
2022/11/29 04:29:01;;;;;;;71.10;23.02;;;7.90;99.90;;;;;;5017820;28;20120;-32
2022/11/29 04:32:21;;;;;;;75.75;22.33;;;7.90;99.90;;;;;;5025726;28;20038;-32
2022/11/29 04:34:58;;;;;;;73.20;23.08;;;7.90;99.90;;;;;;5010114;28;20037;-31
2022/11/29 04:37:36;;;;;;;119.28;26.45;;;7.90;99.90;;;;;;5014159;28;20077;-30
2022/11/29 04:40:20;;;;;;;95.68;24.13;;;7.90;99.90;;;;;;5015948;28;20061;-32
2022/11/29 04:43:04;;;;;;;82.82;23.88;;;7.90;99.90;;;;;;5012991;28;20539;-31
2022/11/29 04:45:33;;;;;;;105.45;25.48;;;7.90;99.90;;;;;;5011748;28;20061;-32
2022/11/29 04:48:08;;;;;;;62.30;22.63;;;7.90;99.90;;;;;;5011458;28;20048;-32
2022/11/29 04:50:40;;;;;;;109.95;24.90;;;7.80;99.90;;;;;;5004676;28;20049;-32
2022/11/29 04:53:29;;;;;;;88.63;23.17;;;7.90;99.90;;;;;;5011313;28;20128;-33
2022/11/29 04:56:05;;;;;;;57.15;21.20;;;7.90;99.90;;;;;;5002402;28;20053;-32
2022/11/29 04:58:46;;;;;;;72.25;22.08;;;7.80;99.90;;;;;;4996608;28;20043;-30
2022/11/29 05:01:48;;;;;;;64.80;21.95;;;7.80;99.90;;;;;;5015714;28;20042;-32
2022/11/29 05:04:17;;;;;;;120.80;26.38;;;7.80;99.90;;;;;;5000052;28;20480;-31
2022/11/29 05:07:05;;;;;;;133.98;26.85;;;7.80;99.90;;;;;;5011303;28;20037;-31
2022/11/29 05:09:50;;;;;;;82.05;24.40;;;7.80;99.90;;;;;;5001611;28;20034;-32
2022/11/29 05:12:40;;;;;;;165.18;29.17;;;7.80;99.90;;;;;;5011434;28;20042;-31
2022/11/29 05:15:34;;;;;;;151.27;28.15;;;7.80;99.90;;;;;;5017175;28;20052;-37
2022/11/29 05:18:19;;;;;;;;;;;7.80;99.90;;;;;;4996102;28;20603;-32
2022/11/29 05:21:07;;;;;;;209.50;31.52;;;7.80;99.90;;;;;;5024071;28;19988;-32
2022/11/29 05:24:03;;;;;;;166.77;27.98;;;7.80;99.90;;;;;;5023721;28;20037;-37
2022/11/29 05:26:37;;;;;;;93.85;23.77;;;7.80;99.90;;;;;;5025657;28;20095;-31
2022/11/29 05:29:13;;;;;;;125.38;24.88;;;7.70;99.90;;;;;;5032685;28;20040;-32
2022/11/29 05:31:59;;;;;;;82.95;22.30;;;7.70;99.90;;;;;;5017047;28;20069;-32
2022/11/29 05:34:42;;;;;;;116.35;24.15;;;7.70;99.90;;;;;;5019668;28;20033;-32
2022/11/29 05:37:17;;;;;;;128.05;25.73;;;7.70;99.90;;;;;;5015476;28;20399;-32
2022/11/29 05:40:25;;;;;;;170.63;30.00;;;7.70;99.90;;;;;;5014285;28;20488;-41
2022/11/29 05:43:22;;;;;;;58.75;20.52;;;7.70;99.90;;;;;;5027351;28;20053;-31
2022/11/29 05:45:59;;;;;;;64.93;21.33;;;7.70;99.90;;;;;;5024310;28;20038;-31
2022/11/29 05:48:43;;;;;;;286.02;37.67;;;7.70;99.90;;;;;;5014481;28;20613;-33
2022/11/29 05:51:09;;;;;;;125.20;25.02;;;7.70;99.90;;;;;;5015489;28;20515;-32
2022/11/29 05:53:45;;;;;;;73.13;21.17;;;7.70;99.90;;;;;;5014465;28;20042;-32
2022/11/29 05:56:21;;;;;;;115.05;23.67;;;7.70;99.90;;;;;;5014176;28;20041;-31
2022/11/29 05:58:49;;;;;;;104.30;23.33;;;7.70;99.90;;;;;;5018675;28;20119;-31
2022/11/29 06:01:44;;;;;;;157.00;26.25;;;7.60;99.90;;;;;;5021574;28;20074;-31
2022/11/29 06:04:22;;;;;;;105.95;23.27;;;7.60;99.90;;;;;;5008374;28;20041;-32
2022/11/29 06:06:59;;;;;;;191.70;29.35;;;7.60;99.90;;;;;;5019683;28;20052;-33
2022/11/29 06:09:55;;;;;;;139.98;25.70;;;7.60;99.90;;;;;;5007133;28;20109;-31
2022/11/29 06:12:23;;;;;;;69.20;21.98;;;7.60;99.90;;;;;;5021765;28;20041;-30
2022/11/29 06:15:27;;;;;;;72.57;21.80;;;7.60;99.90;;;;;;5014822;28;20065;-33
2022/11/29 06:18:05;;;;;;;75.82;22.85;;;7.60;99.90;;;;;;4977746;28;20046;-33
2022/11/29 06:21:10;;;;;;;92.13;22.90;;;7.60;99.90;;;;;;5019678;28;20153;-32
2022/11/29 06:24:07;;;;;;;122.38;25.80;;;7.60;99.90;;;;;;5012914;28;20038;-30
2022/11/29 06:26:43;;;;;;;68.68;22.02;;;7.60;99.90;;;;;;5013302;28;20042;-31
2022/11/29 06:29:12;;;;;;;254.02;37.30;;;7.60;99.90;;;;;;5013399;28;20056;-31
2022/11/29 06:31:45;;;;;;;174.13;30.00;;;7.60;99.90;;;;;;5013065;28;20080;-32
2022/11/29 06:34:37;;;;;;;191.63;30.05;;;7.60;99.90;;;;;;5013482;28;20042;-31
2022/11/29 06:37:27;;;;;;;134.25;24.90;;;7.60;99.90;;;;;;5012897;28;20117;-32
2022/11/29 06:39:54;;;;;;;81.57;22.50;;;7.60;99.90;;;;;;5009976;28;20038;-30
2022/11/29 06:42:20;;;;;;;93.55;22.30;;;7.60;99.90;;;;;;5022489;28;20033;-32
2022/11/29 06:44:46;;;;;;;142.82;25.77;;;7.60;99.90;;;;;;5033301;28;20029;-30
2022/11/29 06:47:29;;;;;;;115.40;22.33;;;7.60;99.90;;;;;;5033369;28;20046;-32
2022/11/29 06:50:14;;;;;;;79.10;20.77;;;7.60;99.90;;;;;;4995012;28;20124;-32
2022/11/29 06:52:54;;;;;;;67.28;19.80;;;7.50;99.90;;;;;;5014338;28;20052;-31
2022/11/29 06:55:41;;;;;;;55.85;18.45;;;7.50;99.90;;;;;;5013962;28;20053;-33
2022/11/29 06:58:26;;;;;;;119.75;22.15;;;7.50;99.90;;;;;;5007089;28;20042;-31
2022/11/29 07:01:07;;;;;;;79.95;19.73;;;7.50;99.90;;;;;;5012382;28;20129;-31
2022/11/29 07:04:03;;;;;;;146.38;24.08;;;7.50;99.90;;;;;;4998806;28;20042;-32
2022/11/29 07:06:30;;;;;;;155.38;26.75;;;7.40;99.90;;;;;;5016523;28;20110;-32
2022/11/29 07:09:08;;;;;;;117.70;23.13;;;7.40;99.90;;;;;;5015937;28;20038;-31
2022/11/29 07:11:35;;;;;;;131.55;24.65;;;7.40;99.90;;;;;;5018722;28;20041;-31
2022/11/29 07:14:01;;;;;;;100.18;22.17;;;7.40;99.90;;;;;;5016403;28;20167;-33
2022/11/29 07:16:36;;;;;;;240.13;33.33;;;7.40;99.90;;;;;;5014899;28;20124;-31
2022/11/29 07:19:07;;;;;;;86.32;20.65;;;7.40;99.90;;;;;;5012855;28;20038;-32
2022/11/29 07:21:47;;;;;;;120.22;22.85;;;7.40;99.90;;;;;;5014722;28;20046;-33
2022/11/29 07:24:20;;;;;;;72.57;20.30;;;7.40;99.90;;;;;;4999340;28;20044;-31
2022/11/29 07:27:00;;;;;;;90.57;21.10;;;7.30;99.90;;;;;;5006164;28;20042;-33
2022/11/29 07:29:37;;;;;;;77.00;19.83;;;7.40;99.90;;;;;;5012610;28;20514;-32
2022/11/29 07:32:12;;;;;;;146.55;24.50;;;7.30;99.90;;;;;;5012929;28;20044;-31
2022/11/29 07:35:04;;;;;;;126.03;23.67;;;7.30;99.90;;;;;;5011387;28;20038;-33
2022/11/29 07:37:38;;;;;;;75.85;21.27;;;7.40;99.90;;;;;;5009551;28;20049;-32
2022/11/29 07:40:15;;;;;;;95.93;21.42;;;7.30;99.90;;;;;;5010014;28;20042;-31
2022/11/29 07:43:05;;;;;;;143.70;26.05;;;7.30;99.90;;;;;;5009133;28;20117;-32
2022/11/29 07:45:36;;;;;;;170.75;27.42;;;7.30;99.90;;;;;;5007451;28;20034;-31
2022/11/29 07:48:03;;;;;;;54.60;18.20;;;7.30;99.90;;;;;;5011825;28;20121;-30
2022/11/29 07:50:30;;;;;;;56.30;17.95;;;7.30;99.90;;;;;;5011148;28;20034;-33
2022/11/29 07:52:56;;;;;;;153.90;24.02;;;7.30;99.90;;;;;;5012289;28;20116;-31
2022/11/29 07:55:25;;;;;;;119.68;20.38;;;7.40;99.90;;;;;;5010384;28;20049;-32
2022/11/29 07:57:52;;;;;;;77.75;19.60;;;7.40;99.90;;;;;;5005123;28;20051;-32
2022/11/29 08:00:19;;;;;;;90.07;20.88;;;7.40;99.90;;;;;;5013356;28;20033;-31
2022/11/29 08:02:48;;;;;;;90.40;18.60;;;7.30;99.90;;;;;;5021045;28;20092;-32
2022/11/29 08:05:14;;;;;;;76.50;19.40;;;7.30;99.90;;;;;;5024051;28;20033;-32
2022/11/29 08:07:40;;;;;;;102.85;20.83;;;7.30;99.90;;;;;;5011541;28;20514;-33
2022/11/29 08:10:09;;;;;;;67.13;18.55;;;7.40;99.90;;;;;;5013135;28;20048;-31
2022/11/29 08:12:35;;;;;;;83.47;19.25;;;7.30;99.90;;;;;;5000314;28;20033;-32
2022/11/29 08:15:01;;;;;;;81.30;19.65;;;7.30;99.90;;;;;;5011860;28;20038;-31
2022/11/29 08:17:27;;;;;;;69.97;19.35;;;7.40;99.90;;;;;;5007945;28;20029;-32
2022/11/29 08:19:53;;;;;;;82.40;19.63;;;7.40;99.90;;;;;;5011710;28;20038;-31
2022/11/29 08:22:19;;;;;;;110.85;22.73;;;7.40;99.90;;;;;;5011836;28;20376;-32
2022/11/29 08:24:44;;;;;;;60.97;17.88;;;7.40;99.90;;;;;;5011445;28;20038;-32
2022/11/29 08:27:10;;;;;;;57.00;17.15;;;7.40;99.90;;;;;;5011625;28;20072;-31
2022/11/29 08:29:36;;;;;;;47.55;17.55;;;7.40;99.90;;;;;;5011946;28;20042;-31
2022/11/29 08:32:02;;;;;;;55.55;17.88;;;7.40;99.90;;;;;;5013153;28;20113;-33
2022/11/29 08:34:28;;;;;;;61.50;17.58;;;7.50;99.90;;;;;;5018331;28;20070;-31
2022/11/29 08:36:55;;;;;;;68.18;19.17;;;7.50;99.90;;;;;;5004875;28;20053;-33
2022/11/29 08:39:21;;;;;;;77.47;20.00;;;7.50;99.90;;;;;;5024893;28;20521;-33
2022/11/29 08:41:48;;;;;;;114.95;23.77;;;7.50;99.90;;;;;;5014089;28;20038;-31
2022/11/29 08:44:14;;;;;;;73.80;18.52;;;7.50;99.90;;;;;;5011811;28;20038;-32
2022/11/29 08:49:24;;;;;;;45.33;17.23;;;7.50;99.90;;;;;;5017276;28;20129;-31
2022/11/29 08:53:40;;;;;;;44.88;17.33;;;7.50;99.90;;;;;;5018779;28;20164;-32
2022/11/29 08:54:40;;;;;;;58.50;18.98;;;7.60;99.90;;;;;;5028375;28;20037;-31
2022/11/29 08:57:06;;;;;;;48.42;17.08;;;7.60;99.90;;;;;;5023594;28;20042;-32
2022/11/29 08:59:32;;;;;;;81.93;20.50;;;7.60;99.90;;;;;;5025852;28;20037;-32
2022/11/29 09:01:57;;;;;;;89.88;22.55;;;7.60;99.90;;;;;;5020420;28;20057;-32
2022/11/29 09:04:23;;;;;;;49.85;17.42;;;7.60;99.90;;;;;;5024319;28;20102;-32
2022/11/29 09:06:49;;;;;;;109.35;22.83;;;7.70;99.90;;;;;;5015289;28;20042;-31
2022/11/29 09:09:15;;;;;;;82.10;20.15;;;7.70;99.90;;;;;;5015343;28;20113;-31
2022/11/29 09:11:41;;;;;;;92.75;21.00;;;7.70;99.90;;;;;;5006228;28;20077;-32
2022/11/29 09:14:12;;;;;;;76.47;20.13;;;7.80;99.90;;;;;;5014944;28;20030;-30
2022/11/29 09:16:38;;;;;;;59.80;18.70;;;7.80;99.90;;;;;;5013295;28;20034;-32
2022/11/29 09:19:05;;;;;;;48.35;17.35;;;7.80;99.90;;;;;;5032553;28;20422;-32
2022/11/29 09:21:35;;;;;;;50.63;18.33;;;7.80;99.90;;;;;;5018201;28;20419;-33
2022/11/29 09:24:05;;;;;;;52.60;16.52;;;7.80;99.90;;;;;;5018415;28;20487;-32
2022/11/29 09:26:33;;;;;;;53.28;16.70;;;7.80;99.90;;;;;;4998821;28;20051;-32
2022/11/29 09:29:01;;;;;;;54.55;18.67;;;7.80;99.90;;;;;;5012869;28;20097;-31
2022/11/29 09:31:29;;;;;;;44.72;17.35;;;7.90;99.90;;;;;;5016211;28;20121;-32
2022/11/29 09:33:55;;;;;;;50.10;18.30;;;7.90;99.90;;;;;;5014720;28;20030;-32
2022/11/29 09:36:22;;;;;;;48.95;17.63;;;7.90;99.90;;;;;;5014738;28;20168;-32
2022/11/29 09:38:47;;;;;;;44.70;17.15;;;8.00;99.90;;;;;;5014673;28;20052;-33
2022/11/29 09:41:47;;;;;;;41.60;16.83;;;8.00;99.90;;;;;;5016161;28;20038;-33
2022/11/29 09:44:32;;;;;;;42.95;15.90;;;8.00;99.90;;;;;;5024776;28;20050;-32
2022/11/29 09:47:01;;;;;;;43.22;17.73;;;8.00;99.90;;;;;;5014870;28;20400;-32
2022/11/29 09:49:52;;;;;;;40.78;16.08;;;8.10;99.90;;;;;;5014958;28;20038;-32
2022/11/29 09:52:38;;;;;;;36.60;15.43;;;8.10;99.90;;;;;;5018288;28;20072;-31
2022/11/29 09:55:13;;;;;;;43.90;16.88;;;8.10;99.90;;;;;;5014611;28;20084;-31
2022/11/29 09:57:42;;;;;;;39.08;15.77;;;8.10;99.90;;;;;;5013412;28;20065;-32
2022/11/29 10:00:18;;;;;;;39.53;16.23;;;8.10;99.90;;;;;;5013123;28;20030;-33
2022/11/29 10:03:11;;;;;;;36.25;16.73;;;8.20;99.90;;;;;;5011244;28;20100;-31
2022/11/29 10:05:45;;;;;;;37.55;16.38;;;8.20;99.90;;;;;;5013213;28;20080;-31
2022/11/29 10:08:27;;;;;;;38.90;15.30;;;8.20;99.90;;;;;;5020196;28;20064;-31
2022/11/29 10:10:58;;;;;;;37.85;16.48;;;8.20;99.90;;;;;;5013099;28;20453;-31
2022/11/29 10:13:30;;;;;;;40.38;16.50;;;8.20;99.90;;;;;;5013105;28;20415;-32
2022/11/29 10:16:03;;;;;;;36.42;15.80;;;8.20;99.90;;;;;;5017352;28;20049;-32
2022/11/29 10:18:37;;;;;;;34.53;14.90;;;8.30;99.90;;;;;;5027650;28;20117;-30
2022/11/29 10:21:15;;;;;;;37.13;15.77;;;8.30;99.90;;;;;;5001240;28;20045;-31
2022/11/29 10:23:56;;;;;;;36.97;15.30;;;8.30;99.90;;;;;;5025057;28;20041;-32
2022/11/29 10:26:23;;;;;;;37.95;14.70;;;8.30;99.90;;;;;;5021592;28;20538;-32
2022/11/29 10:28:50;;;;;;;35.70;15.88;;;8.40;99.90;;;;;;5019314;28;20519;-32
2022/11/29 10:31:27;;;;;;;35.90;14.90;;;8.30;99.90;;;;;;5012486;28;20045;-31
2022/11/29 10:33:55;;;;;;;31.70;15.00;;;8.40;99.90;;;;;;5012944;28;20033;-32
2022/11/29 10:36:34;;;;;;;30.27;13.40;;;8.40;99.90;;;;;;5019758;28;20033;-32
2022/11/29 10:39:09;;;;;;;29.13;14.02;;;8.50;99.90;;;;;;5015701;28;20400;-31
2022/11/29 10:41:35;;;;;;;30.90;14.05;;;8.40;99.90;;;;;;5012021;28;20045;-30
2022/11/29 10:44:01;;;;;;;31.95;14.05;;;8.50;99.90;;;;;;5013557;28;20064;-33
2022/11/29 10:46:35;;;;;;;34.88;15.82;;;8.60;99.90;;;;;;4998515;28;20046;-31
2022/11/29 10:49:04;;;;;;;34.78;14.93;;;8.60;99.90;;;;;;5012236;28;20046;-32
2022/11/29 10:51:32;;;;;;;22.60;13.02;;;8.60;99.90;;;;;;5013057;28;20042;-31
2022/11/29 10:54:30;;;;;;;26.75;13.15;;;8.60;99.90;;;;;;5025554;28;20034;-31
2022/11/29 10:57:00;;;;;;;25.02;12.85;;;8.60;99.90;;;;;;4999139;28;20451;-31
2022/11/29 10:59:28;;;;;;;27.73;13.63;;;8.60;99.90;;;;;;4993207;28;20496;-31
2022/11/29 11:01:54;;;;;;;27.65;13.70;;;8.60;99.90;;;;;;5008496;28;20053;-33
2022/11/29 11:04:28;;;;;;;23.90;11.70;;;8.60;99.90;;;;;;5013437;28;20034;-32
2022/11/29 11:07:03;;;;;;;22.58;10.98;;;8.70;99.90;;;;;;5009403;28;20069;-33
2022/11/29 11:09:32;;;;;;;26.63;11.43;;;8.70;99.90;;;;;;5012204;28;20470;-31
2022/11/29 11:12:04;;;;;;;20.83;11.20;;;8.70;99.90;;;;;;4997960;28;20030;-30
2022/11/29 11:14:35;;;;;;;19.98;11.20;;;8.70;99.90;;;;;;5009213;28;20046;-32
2022/11/29 11:17:21;;;;;;;21.13;11.23;;;8.70;99.90;;;;;;5017740;28;20042;-31
2022/11/29 11:20:03;;;;;;;22.52;11.50;;;8.70;99.90;;;;;;5014570;28;20073;-32
2022/11/29 11:22:31;;;;;;;21.73;11.93;;;8.70;99.90;;;;;;5011981;28;20064;-31
2022/11/29 11:25:05;;;;;;;22.33;11.48;;;8.70;99.90;;;;;;5011582;28;20120;-30
2022/11/29 11:27:34;;;;;;;24.33;11.05;;;8.70;99.90;;;;;;5011745;28;20423;-31
2022/11/29 11:30:04;;;;;;;24.52;10.32;;;8.70;99.90;;;;;;5011300;28;20038;-31
2022/11/29 11:32:30;;;;;;;20.88;10.60;;;8.70;99.90;;;;;;5006962;28;20164;-31
2022/11/29 11:34:58;;;;;;;27.77;12.63;;;8.70;99.90;;;;;;5011057;28;20627;-32
2022/11/29 11:37:28;;;;;;;21.60;11.35;;;8.80;99.90;;;;;;5011731;28;20037;-32
2022/11/29 11:39:56;;;;;;;21.25;10.93;;;8.80;99.90;;;;;;5011576;28;20396;-32
2022/11/29 11:42:37;;;;;;;22.58;10.88;;;8.80;99.90;;;;;;5019011;28;20037;-31
2022/11/29 11:45:09;;;;;;;18.35;10.48;;;8.80;99.90;;;;;;5017061;28;20105;-32
2022/11/29 11:47:40;;;;;;;19.83;10.90;;;8.80;99.90;;;;;;5014190;28;20046;-31
2022/11/29 11:50:15;;;;;;;16.30;9.75;;;8.80;99.90;;;;;;5026869;28;20483;-31
2022/11/29 11:52:52;;;;;;;20.55;9.48;;;8.90;99.90;;;;;;5007820;28;20498;-31
2022/11/29 11:55:20;;;;;;;20.30;8.77;;;8.90;99.90;;;;;;5007761;28;20073;-31
2022/11/29 11:57:58;;;;;;;19.70;9.90;;;8.90;99.90;;;;;;5011060;28;20038;-31
2022/11/29 12:00:48;;;;;;;23.30;10.02;;;8.90;99.90;;;;;;5011268;28;20033;-31
2022/11/29 12:03:38;;;;;;;15.75;10.27;;;8.90;99.90;;;;;;5026560;28;20049;-31
2022/11/29 12:06:07;;;;;;;19.30;10.32;;;8.80;99.90;;;;;;5008172;28;20399;-31
2022/11/29 12:08:35;;;;;;;17.05;9.40;;;8.80;99.90;;;;;;5011097;28;20041;-32
2022/11/29 12:11:05;;;;;;;20.65;9.35;;;8.80;99.90;;;;;;5016484;28;20131;-30
2022/11/29 12:13:34;;;;;;;16.77;9.57;;;8.80;99.90;;;;;;5016233;28;20045;-31
2022/11/29 12:16:08;;;;;;;19.70;9.77;;;8.80;99.90;;;;;;5012138;28;20129;-31
2022/11/29 12:18:36;;;;;;;;;;;8.80;99.90;;;;;;5013626;28;20042;-31
2022/11/29 12:21:15;;;;;;;17.25;9.82;;;8.80;99.90;;;;;;5010825;28;19917;-30
2022/11/29 12:24:07;;;;;;;16.95;9.60;;;8.80;99.90;;;;;;5009248;28;20034;-32
2022/11/29 12:26:41;;;;;;;16.52;9.40;;;8.80;99.90;;;;;;5011819;28;20034;-31
2022/11/29 12:29:16;;;;;;;18.77;10.55;;;8.80;99.90;;;;;;5008982;28;20475;-32
2022/11/29 12:32:04;;;;;;;15.50;9.30;;;8.80;99.90;;;;;;5007110;28;20045;-31
2022/11/29 12:34:32;;;;;;;15.43;9.80;;;8.90;99.90;;;;;;5016057;28;20041;-31
2022/11/29 12:37:03;;;;;;;18.42;9.82;;;8.90;99.90;;;;;;5006750;28;20042;-31
2022/11/29 12:39:56;;;;;;;18.67;9.60;;;8.90;99.90;;;;;;4990556;28;20046;-30
2022/11/29 12:42:40;;;;;;;20.02;10.88;;;8.90;99.90;;;;;;5010605;28;20380;-30
2022/11/29 12:45:14;;;;;;;;;;;9.00;99.90;;;;;;4999561;28;20117;-31
2022/11/29 12:48:13;;;;;;;23.70;10.25;;;9.00;99.90;;;;;;5031924;28;19917;-33
2022/11/29 12:50:44;;;;;;;16.50;9.35;;;9.00;99.90;;;;;;5021224;28;20042;-31
2022/11/29 12:53:39;;;;;;;20.63;10.13;;;9.00;99.90;;;;;;5023081;28;20041;-30
2022/11/29 12:56:12;;;;;;;19.85;9.65;;;9.10;99.90;;;;;;5013060;28;20038;-29
2022/11/29 12:58:38;;;;;;;20.90;9.85;;;9.10;99.90;;;;;;5017037;28;20092;-30
2022/11/29 13:01:24;;;;;;;23.25;11.00;;;9.10;99.90;;;;;;5020768;28;20038;-31
2022/11/29 13:04:09;;;;;;;20.40;10.82;;;9.10;99.90;;;;;;5021050;28;20045;-31
2022/11/29 13:07:29;;;;;;;20.23;10.73;;;9.10;99.90;;;;;;5010968;28;20038;-31
2022/11/29 13:10:40;;;;;;;23.45;11.30;;;9.10;99.90;;;;;;5007517;28;20042;-31
2022/11/29 13:13:27;;;;;;;23.35;11.25;;;9.20;99.90;;;;;;4967177;28;20039;-30
2022/11/29 13:16:24;;;;;;;22.15;10.02;;;9.10;99.90;;;;;;5023978;28;20128;-30
2022/11/29 13:19:08;;;;;;;21.25;10.32;;;9.20;99.90;;;;;;5019837;28;20486;-32
2022/11/29 13:21:52;;;;;;;29.90;11.63;;;9.20;99.90;;;;;;5007473;28;20511;-31
2022/11/29 13:24:27;;;;;;;20.92;11.18;;;9.20;99.90;;;;;;5001210;28;20053;-31